Latest Weather Observations for Cairns

IDQ60801

Issued at 8:04 pm EST Monday 25 July 2016 (issued every 30 minutes, with the page automatically refreshed every 10 minutes)

About weather observations | Map of weather stations | Latest weather observations for QLD | Other Formats
Station Details ID: 031011 Name: CAIRNS AERO Lat: -16.87 Lon: 145.75 Height: 2.22 m
Data from the previous 72 hours. | See also: Recent months at Cairns
Date/Time
EST
Temp
°C
App
Temp
°C
Dew
Point
°C
Rel
Hum
%
Delta-T
°C
Wind Press
QNH
hPa
Press
MSL
hPa
Rain since
9am
mm
Dir  Spd
km/h
Gust
km/h
Spd
kts
Gust
kts
25/07:30pm 22.9 23.3 19.1 79 2.4 SE 15 22 8 12 1015.0 1015.0 0.0
25/07:00pm 23.2 22.9 19.2 78 2.5 SE 19 26 10 14 1014.6 1014.6 0.0
25/06:30pm 23.8 23.3 18.7 73 3.2 SE 19 26 10 14 1014.3 1014.3 0.0
25/06:00pm 24.1 23.6 19.2 74 3.1 ESE 20 28 11 15 1014.1 1014.1 0.0
25/05:30pm 25.3 24.0 19.0 68 4.0 ESE 24 30 13 16 1013.9 1013.9 0.0
25/05:00pm 26.3 25.2 18.7 63 4.9 ESE 22 30 12 16 1013.6 1013.6 0.0
25/04:30pm 26.9 26.2 18.7 60 5.2 ESE 20 28 11 15 1013.6 1013.6 0.0
25/04:00pm 27.2 25.3 18.5 59 5.6 ESE 26 32 14 17 1013.7 1013.7 0.0
25/03:30pm 27.9 26.3 19.1 58 5.7 ESE 26 35 14 19 1013.6 1013.6 0.0
25/03:00pm 28.0 25.6 19.0 58 5.8 ESE 30 37 16 20 1013.6 1013.6 0.0
25/02:30pm 27.5 25.6 19.3 61 5.3 SE 28 33 15 18 1013.9 1013.9 0.0
25/02:00pm 27.4 25.0 19.2 61 5.3 ESE 30 37 16 20 1014.2 1014.2 0.0
25/01:30pm 27.3 25.1 19.6 62 5.0 SE 30 39 16 21 1014.7 1014.7 0.0
25/01:00pm 27.6 25.2 19.9 63 5.0 SE 32 39 17 21 1015.2 1015.2 0.0
25/12:30pm 27.6 26.3 19.9 63 5.0 SE 26 33 14 18 1015.5 1015.5 0.0
25/12:00pm 27.0 25.1 19.4 63 4.9 ESE 28 33 15 18 1015.8 1015.8 0.0
25/11:30am 26.6 25.1 19.5 65 4.6 SE 26 35 14 19 1016.2 1016.2 0.0
25/11:00am 26.2 26.0 19.8 68 4.1 SSE 20 32 11 17 1016.5 1016.5 0.0
25/10:30am 24.8 24.5 19.6 73 3.3 SSE 20 30 11 16 1016.8 1016.8 0.0
25/10:00am 24.3 25.1 19.8 76 2.9 SSE 15 20 8 11 1017.0 1017.0 0.0
25/09:30am 23.6 22.4 18.5 73 3.2 SSE 22 32 12 17 1017.1 1017.1 0.0
25/09:00am 23.3 23.0 18.2 73 3.2 SE 17 22 9 12 1016.6 1016.6 0.0
25/08:30am 21.7 20.9 17.9 79 2.4 SE 19 22 10 12 1016.6 1016.6 0.0
25/08:00am 19.8 18.6 17.6 87 1.3 SE 20 26 11 14 1016.4 1016.4 0.0
25/07:30am 18.8 17.1 17.1 90 1.0 SE 22 26 12 14 1016.1 1016.1 0.0
25/07:00am 18.1 17.9 16.6 91 0.9 SE 13 15 7 8 1015.9 1015.9 0.0
25/06:30am 18.3 16.9 16.6 90 1.0 SE 19 20 10 11 1015.7 1015.7 0.0
25/06:00am 18.6 17.2 16.6 88 1.2 SE 19 22 10 12 1015.2 1015.2 0.0
25/05:30am 18.8 19.8 16.9 89 1.1 WSW 7 13 4 7 1014.9 1014.9 0.0
25/05:00am 17.9 19.1 16.9 94 0.6 WSW 6 7 3 4 1014.6 1014.6 0.0
25/04:30am 18.2 19.2 16.9 92 0.8 SW 7 11 4 6 1014.5 1014.5 0.0
25/04:00am 19.0 18.2 17.1 89 1.2 SSE 17 22 9 12 1014.4 1014.4 0.0
25/03:30am 18.6 20.4 17.4 93 0.7 SW 4 9 2 5 1014.4 1014.4 0.0
25/03:00am 18.6 20.5 17.6 94 0.6 SSW 4 7 2 4 1014.7 1014.7 0.0
25/02:30am 18.7 20.9 17.5 93 0.7 SSW 2 9 1 5 1015.0 1015.0 0.0
25/02:00am 19.1 21.4 17.6 91 0.9 SE 2 7 1 4 1015.1 1015.1 0.0
25/01:30am 18.9 21.6 17.7 93 0.7 CALM 0 0 0 0 1015.2 1015.2 0.0
25/01:00am 19.3 21.0 18.1 93 0.7 SSE 6 9 3 5 1015.3 1015.3 0.0
25/12:30am 19.9 21.8 18.6 92 0.8 SSE 6 11 3 6 1015.4 1015.4 0.0
25/12:00am 18.9 22.0 18.6 98 0.2 CALM 0 0 0 0 1015.6 1015.6 0.0
 
Date/Time
EST
Temp
°C
App
Temp
°C
Dew
Point
°C
Rel
Hum
%
Delta-T
°C
Wind Press
QNH
hPa
Press
MSL
hPa
Rain since
9am
mm
Dir  Spd
km/h
Gust
km/h
Spd
kts
Gust
kts
24/11:30pm 18.1 20.8 17.8 98 0.2 CALM 0 0 0 0 1015.8 1015.8 0.0
24/11:00pm 18.8 21.8 18.5 98 0.2 CALM 0 0 0 0 1015.9 1015.9 0.0
24/10:30pm 19.0 22.0 18.5 97 0.3 CALM 0 0 0 0 1016.0 1016.0 0.0
24/10:00pm 19.4 21.8 18.7 96 0.4 W 4 7 2 4 1015.9 1015.9 0.0
24/09:30pm 19.7 21.6 18.9 95 0.5 WNW 7 9 4 5 1015.7 1015.7 0.0
24/09:00pm 19.8 21.6 18.8 94 0.6 WNW 7 9 4 5 1015.5 1015.5 0.0
24/08:30pm 21.1 24.1 19.2 89 1.2 NW 2 6 1 3 1015.3 1015.3 0.0
24/08:00pm 21.1 23.0 19.0 88 1.3 W 7 9 4 5 1014.9 1014.9 0.0
24/07:30pm 21.7 24.8 18.7 83 1.9 CALM 0 0 0 0 1014.6 1014.6 0.0
24/07:00pm 22.0 25.1 18.6 81 2.1 CALM 0 0 0 0 1014.3 1014.3 0.0
24/06:30pm 22.2 24.1 18.6 80 2.3 SE 6 9 3 5 1014.0 1014.0 0.0
24/06:00pm 23.3 24.9 18.2 73 3.2 SE 7 9 4 5 1013.6 1013.6 0.0
24/05:30pm 25.2 26.2 17.7 63 4.7 S 9 11 5 6 1013.4 1013.4 0.0
24/05:00pm 26.4 25.9 17.7 58 5.5 SE 17 22 9 12 1013.2 1013.2 0.0
24/04:30pm 27.0 26.8 17.5 56 6.0 ESE 15 20 8 11 1012.9 1012.9 0.0
24/04:00pm 27.3 27.1 17.5 55 6.2 ESE 15 19 8 10 1012.9 1012.9 0.0
24/03:30pm 27.8 26.7 17.3 52 6.6 E 19 26 10 14 1013.0 1013.0 0.0
24/03:00pm 27.6 26.0 17.5 54 6.4 ESE 22 28 12 15 1013.1 1013.1 0.0
24/02:30pm 27.9 25.9 17.4 52 6.6 ESE 24 30 13 16 1013.4 1013.4 0.0
24/02:00pm 27.6 26.8 17.2 53 6.5 ESE 17 26 9 14 1013.8 1013.8 0.0
24/01:30pm 27.9 27.4 17.7 53 6.4 ESE 17 26 9 14 1014.3 1014.3 0.0
24/01:00pm 27.8 26.0 17.9 54 6.3 ESE 24 32 13 17 1014.4 1014.4 0.0
24/12:30pm 27.5 25.6 17.7 55 6.2 SE 24 32 13 17 1014.9 1014.9 0.0
24/12:00pm 27.5 26.6 18.2 57 5.9 SE 20 30 11 16 1015.4 1015.4 0.0
24/11:30am 27.1 26.4 18.7 60 5.4 SE 20 28 11 15 1015.7 1015.7 0.0
24/11:00am 26.3 25.9 19.4 66 4.4 SSE 20 30 11 16 1015.9 1015.9 0.0
24/10:30am 25.7 25.9 19.3 67 4.1 SSE 17 22 9 12 1015.9 1015.9 0.0
24/10:00am 25.2 25.6 19.1 69 3.9 SSE 15 20 8 11 1016.1 1016.1 0.0
24/09:30am 24.6 24.8 19.4 73 3.3 SE 17 20 9 11 1016.1 1016.1 0.0
24/09:00am 22.8 22.3 19.2 80 2.3 SE 20 26 11 14 1016.0 1016.0 0.0
24/08:30am 22.0 22.4 19.0 83 1.9 SE 15 19 8 10 1015.8 1015.8 0.0
24/08:00am 20.8 20.2 18.4 86 1.5 SE 19 22 10 12 1015.6 1015.6 0.0
24/07:30am 20.3 20.0 18.2 88 1.3 SSE 17 26 9 14 1015.4 1015.4 0.0
24/07:00am 19.8 19.0 17.9 89 1.2 SSE 19 26 10 14 1015.0 1015.0 0.0
24/06:30am 19.2 18.8 18.0 93 0.7 SSE 17 20 9 11 1014.7 1014.7 0.0
24/06:00am 19.7 20.0 18.0 90 1.0 SE 13 20 7 11 1014.3 1014.3 0.0
24/05:30am 19.2 19.5 17.9 92 0.8 SSE 13 19 7 10 1014.1 1014.1 0.0
24/05:00am 19.7 19.1 18.4 92 0.8 SE 19 22 10 12 1013.9 1013.9 0.0
24/04:30am 19.4 21.3 18.6 95 0.5 S 6 17 3 9 1013.7 1013.7 0.0
24/04:00am 19.2 21.3 18.2 94 0.6 S 4 11 2 6 1013.7 1013.7 0.0
24/03:30am 18.3 20.6 17.8 97 0.3 NNW 2 7 1 4 1013.7 1013.7 0.0
24/03:00am 19.2 20.9 18.4 95 0.5 W 7 7 4 4 1013.8 1013.8 0.0
24/02:30am 19.5 21.4 18.5 94 0.6 SW 6 9 3 5 1014.0 1014.0 0.0
24/02:00am 19.8 22.5 18.6 93 0.7 WSW 2 7 1 4 1014.0 1014.0 0.0
24/01:30am 20.1 20.3 18.6 91 0.9 SE 15 19 8 10 1014.3 1014.3 0.0
24/01:00am 21.5 24.4 19.1 86 1.5 SSW 2 9 1 5 1014.3 1014.3 0.0
24/12:30am 20.7 22.2 19.0 90 1.1 SSE 9 15 5 8 1014.3 1014.3 0.0
24/12:00am 21.3 22.6 19.2 88 1.3 SSE 11 15 6 8 1014.5 1014.5 0.0
 
Date/Time
EST
Temp
°C
App
Temp
°C
Dew
Point
°C
Rel
Hum
%
Delta-T
°C
Wind Press
QNH
hPa
Press
MSL
hPa
Rain since
9am
mm
Dir  Spd
km/h
Gust
km/h
Spd
kts
Gust
kts
23/11:30pm 21.5 23.1 19.1 86 1.5 SSE 9 15 5 8 1014.5 1014.5 0.0
23/11:00pm 22.5 22.9 19.1 81 2.2 S 15 22 8 12 1014.5 1014.5 0.0
23/10:30pm 22.4 23.9 19.0 81 2.2 S 9 15 5 8 1014.6 1014.6 0.0
23/10:00pm 22.2 23.8 19.2 83 1.9 S 9 13 5 7 1014.6 1014.6 0.0
23/09:30pm 20.7 22.6 19.0 90 1.1 NNW 7 9 4 5 1014.4 1014.4 0.0
23/09:00pm 21.5 23.2 19.4 88 1.3 SSE 9 9 5 5 1014.1 1014.1 0.0
23/08:30pm 22.3 23.9 20.0 87 1.5 SSE 11 13 6 7 1013.9 1013.9 0.0
23/08:00pm 22.1 24.3 19.6 86 1.6 SSE 7 13 4 7 1013.4 1013.4 0.0
23/07:30pm 21.7 23.8 19.4 87 1.5 SSE 7 11 4 6 1013.2 1013.2 0.0
23/07:00pm 22.1 24.2 19.3 84 1.8 S 7 9 4 5 1013.1 1013.1 0.0
23/06:30pm 23.2 24.5 19.4 79 2.4 SSE 11 13 6 7 1012.8 1012.8 0.0
23/06:00pm 24.0 25.4 19.5 76 2.9 SSE 11 13 6 7 1012.5 1012.5 0.0
23/05:30pm 24.8 26.5 19.4 72 3.5 S 9 17 5 9 1012.3 1012.3 0.0
23/05:00pm 25.1 27.3 19.7 72 3.5 SE 7 11 4 6 1012.0 1012.0 0.0
23/04:30pm 26.6 27.4 19.0 63 4.9 ESE 13 15 7 8 1011.6 1011.6 0.0
23/04:00pm 27.7 28.1 18.1 56 6.1 E 13 17 7 9 1011.5 1011.5 0.0
23/03:30pm 26.9 27.7 18.2 59 5.5 ENE 11 13 6 7 1011.7 1011.7 0.0
23/03:00pm 27.3 27.6 18.0 56 5.9 E 13 20 7 11 1011.9 1011.9 0.0
23/02:30pm 28.0 28.4 19.0 58 5.8 E 15 19 8 10 1012.2 1012.2 0.0
23/02:00pm 27.3 27.5 19.4 62 5.1 E 17 26 9 14 1012.5 1012.5 0.0
23/01:30pm 27.7 28.0 20.3 64 4.9 ENE 19 26 10 14 1012.8 1012.8 0.0
23/01:00pm 27.0 27.6 20.3 66 4.4 ENE 17 22 9 12 1013.4 1013.4 0.0
23/12:30pm 27.9 29.0 19.7 61 5.3 ESE 13 19 7 10 1013.7 1013.7 0.0
23/12:00pm 26.7 27.5 19.1 63 4.9 SSE 13 22 7 12 1014.1 1014.1 0.0
23/11:30am 25.9 26.7 19.1 66 4.4 SSE 13 19 7 10 1014.4 1014.4 0.0
23/11:00am 26.2 27.0 19.1 65 4.6 SSE 13 20 7 11 1014.9 1014.9 0.0
23/10:30am 25.6 26.7 19.7 70 3.8 SSE 13 19 7 10 1015.3 1015.3 0.0
23/10:00am 24.7 25.4 18.9 70 3.7 SSE 13 17 7 9 1015.6 1015.6 0.0
23/09:30am 24.6 26.1 18.8 70 3.7 S 9 15 5 8 1015.3 1015.3 0.0
23/09:00am 22.7 25.1 19.7 83 1.9 W 6 9 3 5 1015.3 1015.3 0.2
23/08:30am 21.7 24.1 18.7 83 1.9 SW 4 11 2 6 1015.3 1015.3 0.2
23/08:00am 19.8 21.4 18.3 91 0.9 NNW 7 11 4 6 1015.1 1015.1 0.2
23/07:30am 19.1 20.6 18.1 94 0.6 W 7 9 4 5 1014.9 1014.9 0.2
23/07:00am 18.1 20.4 17.6 97 0.3 W 2 7 1 4 1014.7 1014.7 0.2
23/06:30am 17.7 18.8 17.2 97 0.3 NNW 7 9 4 5 1014.4 1014.4 0.2
23/06:00am 17.9 20.5 17.4 97 0.3 CALM 0 0 0 0 1014.1 1014.1 0.2
23/05:30am 18.0 18.9 17.5 97 0.3 NNW 9 9 5 5 1013.8 1013.8 0.2
23/05:00am 18.1 20.3 17.5 96 0.4 NW 2 6 1 3 1013.6 1013.6 0.2
23/04:30am 18.6 19.9 17.6 94 0.6 SSW 7 11 4 6 1013.8 1013.8 0.2
23/04:00am 19.3 21.0 18.1 93 0.7 SW 6 9 3 5 1013.7 1013.7 0.2
23/03:30am 19.5 19.8 17.8 90 1.0 SE 13 17 7 9 1013.5 1013.5 0.2
23/03:00am 19.2 21.8 18.4 95 0.5 ESE 2 9 1 5 1013.5 1013.5 0.2
23/02:30am 18.8 21.2 18.0 95 0.5 ENE 2 7 1 4 1013.6 1013.6 0.2
23/02:00am 19.8 21.7 18.6 93 0.7 E 6 11 3 6 1013.8 1013.8 0.2
23/01:30am 19.3 22.3 18.5 95 0.5 CALM 0 6 0 3 1014.3 1014.3 0.2
23/01:00am 20.0 22.7 18.7 92 0.8 WSW 2 7 1 4 1014.6 1014.6 0.2
23/12:30am 21.3 22.8 18.9 86 1.5 SSW 9 15 5 8 1014.7 1014.7 0.2
23/12:00am 21.9 23.2 19.3 85 1.6 S 11 17 6 9 1014.7 1014.7 0.2
 
Date/Time
EST
Temp
°C
App
Temp
°C
Dew
Point
°C
Rel
Hum
%
Delta-T
°C
Wind Press
QNH
hPa
Press
MSL
hPa
Rain since
9am
mm
Dir  Spd
km/h
Gust
km/h
Spd
kts
Gust
kts
22/11:30pm 21.7 22.1 19.1 85 1.6 S 15 26 8 14 1014.7 1014.7 0.2
22/11:00pm 21.5 21.9 19.1 86 1.5 SSE 15 20 8 11 1014.8 1014.8 0.2
22/10:30pm 21.6 22.5 19.2 86 1.5 SSE 13 19 7 10 1014.7 1014.7 0.2
22/10:00pm 21.9 22.8 19.3 85 1.6 S 13 20 7 11 1014.5 1014.5 0.2
22/09:30pm 22.0 22.9 19.2 84 1.8 S 13 20 7 11 1014.3 1014.3 0.2
22/09:00pm 22.4 23.4 19.4 83 1.9 S 13 19 7 10 1014.1 1014.1 0.2
22/08:30pm 22.3 23.3 19.5 84 1.8 S 13 20 7 11 1014.0 1014.0 0.2

Other Formats:

Comma delimited format used in spreadsheet applications
http://www.bom.gov.au/fwo/IDQ60801/IDQ60801.94287.axf

JavaScript Object Notation format (JSON) in row-major order
http://www.bom.gov.au/fwo/IDQ60801/IDQ60801.94287.json